Enter the Airport ICAO Code

Search by Airport or City

Current Weather

LELC | Murcia–San Javier Airport

Murcia, Region of Murcia, Spain

Last Update 28 Minutes Ago

Partly Cloudy Sky

Temperature of 25 ºC

Light to Moderate Winds from East

Temperature

25 ºC

Dew Point Temperature

21 ºC

Relative Humidity

78.61 %

Wind Direction

East (070º, Ranging from 020º to 110º)

Wind Velocity

9 km/h (05 kt)

Gusts

None

Visibility

Greater than 10 Kilometers

Sea Level Pressure

1014 hPa (Hectopascals)

Layers of Clouds

30% to 60% of Sky Covered from 366 mts (1200 ft) Above Ground Level.

METAR LELC 191200Z 07005KT 020V110 9999 SCT012 25/21 Q1014 NOSIG

Weather Forecast

LELC | Murcia–San Javier Airport

Murcia, Region of Murcia, Spain

Forecast valid for the next 24 Hours

From now on it is expected:

Mostly Cloudy Sky

Moderate Winds from East

Maximum Temperature

28 ºC in 24 Hours

Minimum Temperature

19 ºC in 17 Hours

TAF LELC 191100Z 1912/2012 10010KT 9999 BKN010 TX28/2012Z TN19/2005Z